sensor_id;sensor_type;location;lat;lon;timestamp;temperature;humidity
5210;DHT22;2624;48.048;11.706;2023-05-10T00:01:29;15.00;99.90
5210;DHT22;2624;48.048;11.706;2023-05-10T00:06:30;14.90;99.90
5210;DHT22;2624;48.048;11.706;2023-05-10T00:11:32;15.00;99.90
5210;DHT22;2624;48.048;11.706;2023-05-10T00:16:35;14.90;99.90
5210;DHT22;2624;48.048;11.706;2023-05-10T00:21:37;15.00;99.90
5210;DHT22;2624;48.048;11.706;2023-05-10T00:26:39;15.10;99.90
5210;DHT22;2624;48.048;11.706;2023-05-10T00:31:43;15.00;99.90
5210;DHT22;2624;48.048;11.706;2023-05-10T00:36:45;14.90;99.90
5210;DHT22;2624;48.048;11.706;2023-05-10T00:41:47;14.90;99.90
5210;DHT22;2624;48.048;11.706;2023-05-10T00:46:50;14.70;99.90
5210;DHT22;2624;48.048;11.706;2023-05-10T00:51:52;14.70;99.90
5210;DHT22;2624;48.048;11.706;2023-05-10T00:56:54;14.60;99.90
5210;DHT22;2624;48.048;11.706;2023-05-10T01:01:59;14.60;99.90
5210;DHT22;2624;48.048;11.706;2023-05-10T01:07:01;14.50;99.90
5210;DHT22;2624;48.048;11.706;2023-05-10T01:12:03;14.60;99.90
5210;DHT22;2624;48.048;11.706;2023-05-10T01:17:09;14.10;99.90
5210;DHT22;2624;48.048;11.706;2023-05-10T01:22:30;14.30;99.90
5210;DHT22;2624;48.048;11.706;2023-05-10T01:28:03;14.30;99.90
5210;DHT22;2624;48.048;11.706;2023-05-10T01:33:17;14.30;99.90
5210;DHT22;2624;48.048;11.706;2023-05-10T01:38:26;14.30;99.90
5210;DHT22;2624;48.048;11.706;2023-05-10T01:43:35;14.20;99.90
5210;DHT22;2624;48.048;11.706;2023-05-10T01:48:46;14.20;99.90
5210;DHT22;2624;48.048;11.706;2023-05-10T01:53:49;14.20;99.90
5210;DHT22;2624;48.048;11.706;2023-05-10T01:58:53;14.10;99.90
5210;DHT22;2624;48.048;11.706;2023-05-10T02:03:57;14.10;99.90
5210;DHT22;2624;48.048;11.706;2023-05-10T02:09:00;14.00;99.90
5210;DHT22;2624;48.048;11.706;2023-05-10T02:14:02;14.00;99.90
5210;DHT22;2624;48.048;11.706;2023-05-10T02:19:07;13.90;99.90
5210;DHT22;2624;48.048;11.706;2023-05-10T02:24:11;13.90;99.90
5210;DHT22;2624;48.048;11.706;2023-05-10T02:29:14;13.80;99.90
5210;DHT22;2624;48.048;11.706;2023-05-10T02:34:17;13.90;99.90
5210;DHT22;2624;48.048;11.706;2023-05-10T02:39:21;13.90;99.90
5210;DHT22;2624;48.048;11.706;2023-05-10T02:44:23;13.80;99.90
5210;DHT22;2624;48.048;11.706;2023-05-10T02:49:29;13.70;99.90
5210;DHT22;2624;48.048;11.706;2023-05-10T02:54:34;13.60;99.90
5210;DHT22;2624;48.048;11.706;2023-05-10T02:59:38;13.70;99.90
5210;DHT22;2624;48.048;11.706;2023-05-10T03:04:41;13.70;99.90
5210;DHT22;2624;48.048;11.706;2023-05-10T03:09:43;13.60;99.90
5210;DHT22;2624;48.048;11.706;2023-05-10T03:14:52;13.60;99.90
5210;DHT22;2624;48.048;11.706;2023-05-10T03:19:57;13.60;99.90
5210;DHT22;2624;48.048;11.706;2023-05-10T03:25:00;13.60;99.90
5210;DHT22;2624;48.048;11.706;2023-05-10T03:30:05;13.60;99.90
5210;DHT22;2624;48.048;11.706;2023-05-10T03:35:12;13.50;99.90
5210;DHT22;2624;48.048;11.706;2023-05-10T03:40:14;13.50;99.90
5210;DHT22;2624;48.048;11.706;2023-05-10T03:45:16;13.50;99.90
5210;DHT22;2624;48.048;11.706;2023-05-10T03:50:19;13.60;99.90
5210;DHT22;2624;48.048;11.706;2023-05-10T03:55:21;13.60;99.90
5210;DHT22;2624;48.048;11.706;2023-05-10T04:00:23;13.40;99.90
5210;DHT22;2624;48.048;11.706;2023-05-10T04:05:26;13.40;99.90
5210;DHT22;2624;48.048;11.706;2023-05-10T04:10:28;13.30;99.90
5210;DHT22;2624;48.048;11.706;2023-05-10T04:15:30;13.30;99.90
5210;DHT22;2624;48.048;11.706;2023-05-10T04:20:33;13.20;99.90
5210;DHT22;2624;48.048;11.706;2023-05-10T04:25:35;13.30;99.90
5210;DHT22;2624;48.048;11.706;2023-05-10T04:30:37;13.40;99.90
5210;DHT22;2624;48.048;11.706;2023-05-10T04:35:40;13.30;99.90
5210;DHT22;2624;48.048;11.706;2023-05-10T04:40:42;13.30;99.90
5210;DHT22;2624;48.048;11.706;2023-05-10T04:45:44;13.20;99.90
5210;DHT22;2624;48.048;11.706;2023-05-10T04:50:47;13.20;99.90
5210;DHT22;2624;48.048;11.706;2023-05-10T04:55:49;13.20;99.90
5210;DHT22;2624;48.048;11.706;2023-05-10T05:00:51;13.20;99.90
5210;DHT22;2624;48.048;11.706;2023-05-10T05:05:54;13.20;99.90
5210;DHT22;2624;48.048;11.706;2023-05-10T05:10:55;13.10;99.90
5210;DHT22;2624;48.048;11.706;2023-05-10T05:15:59;13.30;99.90
5210;DHT22;2624;48.048;11.706;2023-05-10T05:21:03;13.40;99.90
5210;DHT22;2624;48.048;11.706;2023-05-10T05:26:04;13.30;99.90
5210;DHT22;2624;48.048;11.706;2023-05-10T05:31:07;13.30;99.90
5210;DHT22;2624;48.048;11.706;2023-05-10T05:36:10;13.30;99.90
5210;DHT22;2624;48.048;11.706;2023-05-10T05:41:12;13.40;99.90
5210;DHT22;2624;48.048;11.706;2023-05-10T05:46:14;13.40;99.90
5210;DHT22;2624;48.048;11.706;2023-05-10T05:51:17;13.40;99.90
5210;DHT22;2624;48.048;11.706;2023-05-10T05:56:19;13.30;99.90
5210;DHT22;2624;48.048;11.706;2023-05-10T06:01:24;13.30;99.90
5210;DHT22;2624;48.048;11.706;2023-05-10T06:06:27;13.30;99.90
5210;DHT22;2624;48.048;11.706;2023-05-10T06:11:29;13.30;99.90
5210;DHT22;2624;48.048;11.706;2023-05-10T06:16:32;13.30;99.90
5210;DHT22;2624;48.048;11.706;2023-05-10T06:21:35;13.30;99.90
5210;DHT22;2624;48.048;11.706;2023-05-10T06:26:37;13.30;99.90
5210;DHT22;2624;48.048;11.706;2023-05-10T06:31:39;13.40;99.90
5210;DHT22;2624;48.048;11.706;2023-05-10T06:36:42;13.50;99.90
5210;DHT22;2624;48.048;11.706;2023-05-10T06:41:44;13.40;99.90
5210;DHT22;2624;48.048;11.706;2023-05-10T06:46:46;13.30;99.90
5210;DHT22;2624;48.048;11.706;2023-05-10T06:51:49;13.30;99.90
5210;DHT22;2624;48.048;11.706;2023-05-10T06:56:51;13.20;99.90
5210;DHT22;2624;48.048;11.706;2023-05-10T07:01:53;13.20;99.90
5210;DHT22;2624;48.048;11.706;2023-05-10T07:06:56;13.20;99.90
5210;DHT22;2624;48.048;11.706;2023-05-10T07:11:58;13.30;99.90
5210;DHT22;2624;48.048;11.706;2023-05-10T07:17:00;13.40;99.90
5210;DHT22;2624;48.048;11.706;2023-05-10T07:22:03;13.40;99.90
5210;DHT22;2624;48.048;11.706;2023-05-10T07:27:05;13.50;99.90
5210;DHT22;2624;48.048;11.706;2023-05-10T07:32:06;13.60;99.90
5210;DHT22;2624;48.048;11.706;2023-05-10T07:37:10;13.70;99.90
5210;DHT22;2624;48.048;11.706;2023-05-10T07:42:11;13.70;99.90
5210;DHT22;2624;48.048;11.706;2023-05-10T07:47:13;13.70;99.90
5210;DHT22;2624;48.048;11.706;2023-05-10T07:52:16;13.70;99.90
5210;DHT22;2624;48.048;11.706;2023-05-10T07:57:18;13.60;99.90
5210;DHT22;2624;48.048;11.706;2023-05-10T08:02:20;13.60;99.90
5210;DHT22;2624;48.048;11.706;2023-05-10T08:07:24;13.80;99.90
5210;DHT22;2624;48.048;11.706;2023-05-10T08:12:26;13.70;99.90
5210;DHT22;2624;48.048;11.706;2023-05-10T08:17:27;13.80;99.90
5210;DHT22;2624;48.048;11.706;2023-05-10T08:22:30;13.90;99.90
5210;DHT22;2624;48.048;11.706;2023-05-10T08:27:32;14.00;99.90
5210;DHT22;2624;48.048;11.706;2023-05-10T08:32:34;14.00;99.90
5210;DHT22;2624;48.048;11.706;2023-05-10T08:37:39;14.00;99.90
5210;DHT22;2624;48.048;11.706;2023-05-10T08:42:47;14.00;99.90
5210;DHT22;2624;48.048;11.706;2023-05-10T08:47:52;14.00;99.90
5210;DHT22;2624;48.048;11.706;2023-05-10T08:52:58;14.20;99.90
5210;DHT22;2624;48.048;11.706;2023-05-10T08:58:00;14.10;99.90
5210;DHT22;2624;48.048;11.706;2023-05-10T09:03:04;14.10;99.90
5210;DHT22;2624;48.048;11.706;2023-05-10T09:08:07;14.10;99.90
5210;DHT22;2624;48.048;11.706;2023-05-10T09:13:10;14.10;99.90
5210;DHT22;2624;48.048;11.706;2023-05-10T09:18:12;14.00;99.90
5210;DHT22;2624;48.048;11.706;2023-05-10T09:23:16;14.00;99.90
5210;DHT22;2624;48.048;11.706;2023-05-10T09:28:17;14.10;99.90
5210;DHT22;2624;48.048;11.706;2023-05-10T09:33:19;14.00;99.90
5210;DHT22;2624;48.048;11.706;2023-05-10T09:38:22;14.10;99.90
5210;DHT22;2624;48.048;11.706;2023-05-10T09:43:24;14.10;99.90
5210;DHT22;2624;48.048;11.706;2023-05-10T09:48:26;14.10;99.90
5210;DHT22;2624;48.048;11.706;2023-05-10T09:53:29;14.10;99.90
5210;DHT22;2624;48.048;11.706;2023-05-10T09:58:31;14.10;99.90
5210;DHT22;2624;48.048;11.706;2023-05-10T10:03:33;14.10;99.90
5210;DHT22;2624;48.048;11.706;2023-05-10T10:08:36;14.10;99.90
5210;DHT22;2624;48.048;11.706;2023-05-10T10:13:38;14.20;99.90
5210;DHT22;2624;48.048;11.706;2023-05-10T10:18:41;14.20;99.90
5210;DHT22;2624;48.048;11.706;2023-05-10T10:23:44;14.30;99.90
5210;DHT22;2624;48.048;11.706;2023-05-10T10:28:51;14.40;99.90
5210;DHT22;2624;48.048;11.706;2023-05-10T10:34:00;14.40;99.90
5210;DHT22;2624;48.048;11.706;2023-05-10T10:39:09;14.50;99.90
5210;DHT22;2624;48.048;11.706;2023-05-10T10:44:24;14.50;99.90
5210;DHT22;2624;48.048;11.706;2023-05-10T10:49:27;14.50;99.90
5210;DHT22;2624;48.048;11.706;2023-05-10T10:54:30;14.50;99.90
5210;DHT22;2624;48.048;11.706;2023-05-10T10:59:33;14.50;99.90
5210;DHT22;2624;48.048;11.706;2023-05-10T11:04:41;14.60;99.90
5210;DHT22;2624;48.048;11.706;2023-05-10T11:09:46;14.60;99.90
5210;DHT22;2624;48.048;11.706;2023-05-10T11:14:50;14.60;99.90
5210;DHT22;2624;48.048;11.706;2023-05-10T11:20:07;14.70;99.90
5210;DHT22;2624;48.048;11.706;2023-05-10T11:25:11;14.60;99.90
5210;DHT22;2624;48.048;11.706;2023-05-10T11:30:14;14.60;99.90
5210;DHT22;2624;48.048;11.706;2023-05-10T11:35:16;14.60;99.90
5210;DHT22;2624;48.048;11.706;2023-05-10T11:40:20;14.50;99.90
5210;DHT22;2624;48.048;11.706;2023-05-10T11:45:24;14.30;99.90
5210;DHT22;2624;48.048;11.706;2023-05-10T11:50:26;14.20;99.90
5210;DHT22;2624;48.048;11.706;2023-05-10T11:55:33;14.00;99.90
5210;DHT22;2624;48.048;11.706;2023-05-10T12:00:35;13.90;99.90
5210;DHT22;2624;48.048;11.706;2023-05-10T12:05:37;13.50;99.90
5210;DHT22;2624;48.048;11.706;2023-05-10T12:10:43;13.40;99.90
5210;DHT22;2624;48.048;11.706;2023-05-10T12:15:44;13.70;99.90
5210;DHT22;2624;48.048;11.706;2023-05-10T12:20:46;13.40;99.90
5210;DHT22;2624;48.048;11.706;2023-05-10T12:25:49;13.60;99.90
5210;DHT22;2624;48.048;11.706;2023-05-10T12:30:54;13.60;99.90
5210;DHT22;2624;48.048;11.706;2023-05-10T12:35:59;13.50;99.90
5210;DHT22;2624;48.048;11.706;2023-05-10T12:41:03;13.40;99.90
5210;DHT22;2624;48.048;11.706;2023-05-10T12:46:06;13.40;99.90
5210;DHT22;2624;48.048;11.706;2023-05-10T12:51:09;13.20;99.90
5210;DHT22;2624;48.048;11.706;2023-05-10T12:56:14;13.10;99.90
5210;DHT22;2624;48.048;11.706;2023-05-10T13:01:15;13.00;99.90
5210;DHT22;2624;48.048;11.706;2023-05-10T13:06:17;13.10;99.90
5210;DHT22;2624;48.048;11.706;2023-05-10T13:11:20;13.00;99.90
5210;DHT22;2624;48.048;11.706;2023-05-10T13:16:22;13.00;99.90
5210;DHT22;2624;48.048;11.706;2023-05-10T13:21:24;13.20;99.90
5210;DHT22;2624;48.048;11.706;2023-05-10T13:26:27;13.10;99.90
5210;DHT22;2624;48.048;11.706;2023-05-10T13:31:29;13.10;99.90
5210;DHT22;2624;48.048;11.706;2023-05-10T13:36:31;13.00;99.90
5210;DHT22;2624;48.048;11.706;2023-05-10T13:41:34;13.00;99.90
5210;DHT22;2624;48.048;11.706;2023-05-10T13:46:37;13.00;99.90
5210;DHT22;2624;48.048;11.706;2023-05-10T13:51:39;13.00;99.90
5210;DHT22;2624;48.048;11.706;2023-05-10T13:56:42;12.90;99.90
5210;DHT22;2624;48.048;11.706;2023-05-10T14:01:44;12.90;99.90
5210;DHT22;2624;48.048;11.706;2023-05-10T14:06:46;12.80;99.90
5210;DHT22;2624;48.048;11.706;2023-05-10T14:11:49;12.70;99.90
5210;DHT22;2624;48.048;11.706;2023-05-10T14:16:51;12.80;99.90
5210;DHT22;2624;48.048;11.706;2023-05-10T14:21:53;12.80;99.90
5210;DHT22;2624;48.048;11.706;2023-05-10T14:26:56;12.70;99.90
5210;DHT22;2624;48.048;11.706;2023-05-10T14:31:59;12.70;99.90
5210;DHT22;2624;48.048;11.706;2023-05-10T14:37:01;12.90;99.90
5210;DHT22;2624;48.048;11.706;2023-05-10T14:42:04;12.70;99.90
5210;DHT22;2624;48.048;11.706;2023-05-10T14:47:06;12.70;99.90
5210;DHT22;2624;48.048;11.706;2023-05-10T14:52:07;12.60;99.90
5210;DHT22;2624;48.048;11.706;2023-05-10T14:57:10;12.60;99.90
5210;DHT22;2624;48.048;11.706;2023-05-10T15:02:13;12.60;99.90
5210;DHT22;2624;48.048;11.706;2023-05-10T15:07:14;12.70;99.90
5210;DHT22;2624;48.048;11.706;2023-05-10T15:12:19;12.80;99.90
5210;DHT22;2624;48.048;11.706;2023-05-10T15:17:21;12.70;99.90
5210;DHT22;2624;48.048;11.706;2023-05-10T15:22:23;12.70;99.90
5210;DHT22;2624;48.048;11.706;2023-05-10T15:27:26;12.70;99.90
5210;DHT22;2624;48.048;11.706;2023-05-10T15:32:28;12.80;99.90
5210;DHT22;2624;48.048;11.706;2023-05-10T15:37:30;12.60;99.90
5210;DHT22;2624;48.048;11.706;2023-05-10T15:42:33;12.50;99.90
5210;DHT22;2624;48.048;11.706;2023-05-10T15:47:35;12.30;99.90
5210;DHT22;2624;48.048;11.706;2023-05-10T15:52:39;12.50;99.90
5210;DHT22;2624;48.048;11.706;2023-05-10T15:57:43;12.50;99.90
5210;DHT22;2624;48.048;11.706;2023-05-10T16:02:45;12.40;99.90
5210;DHT22;2624;48.048;11.706;2023-05-10T16:07:46;12.50;99.90
5210;DHT22;2624;48.048;11.706;2023-05-10T16:12:50;12.50;99.90
5210;DHT22;2624;48.048;11.706;2023-05-10T16:17:51;12.50;99.90
5210;DHT22;2624;48.048;11.706;2023-05-10T16:22:53;12.30;99.90
5210;DHT22;2624;48.048;11.706;2023-05-10T16:27:57;12.40;99.90
5210;DHT22;2624;48.048;11.706;2023-05-10T16:33:00;12.30;99.90
5210;DHT22;2624;48.048;11.706;2023-05-10T16:38:02;12.40;99.90
5210;DHT22;2624;48.048;11.706;2023-05-10T16:43:05;12.40;99.90
5210;DHT22;2624;48.048;11.706;2023-05-10T16:48:07;12.30;99.90
5210;DHT22;2624;48.048;11.706;2023-05-10T16:53:09;12.30;99.90
5210;DHT22;2624;48.048;11.706;2023-05-10T16:58:12;12.20;99.90
5210;DHT22;2624;48.048;11.706;2023-05-10T17:03:14;12.20;99.90
5210;DHT22;2624;48.048;11.706;2023-05-10T17:08:16;12.10;99.90
5210;DHT22;2624;48.048;11.706;2023-05-10T17:13:19;12.20;99.90
5210;DHT22;2624;48.048;11.706;2023-05-10T17:18:21;12.10;99.90
5210;DHT22;2624;48.048;11.706;2023-05-10T17:23:22;12.10;99.90
5210;DHT22;2624;48.048;11.706;2023-05-10T17:28:26;12.10;99.90
5210;DHT22;2624;48.048;11.706;2023-05-10T17:33:27;12.10;99.90
5210;DHT22;2624;48.048;11.706;2023-05-10T17:38:29;12.00;99.90
5210;DHT22;2624;48.048;11.706;2023-05-10T17:43:32;12.10;99.90
5210;DHT22;2624;48.048;11.706;2023-05-10T17:48:34;12.00;99.90
5210;DHT22;2624;48.048;11.706;2023-05-10T17:53:37;12.00;99.90
5210;DHT22;2624;48.048;11.706;2023-05-10T17:58:40;12.00;99.90
5210;DHT22;2624;48.048;11.706;2023-05-10T18:03:42;12.00;99.90
5210;DHT22;2624;48.048;11.706;2023-05-10T18:08:44;12.10;99.90
5210;DHT22;2624;48.048;11.706;2023-05-10T18:13:47;12.00;99.90
5210;DHT22;2624;48.048;11.706;2023-05-10T18:18:48;12.10;99.90
5210;DHT22;2624;48.048;11.706;2023-05-10T18:23:50;11.90;99.90
5210;DHT22;2624;48.048;11.706;2023-05-10T18:28:53;11.60;99.90
5210;DHT22;2624;48.048;11.706;2023-05-10T18:33:55;11.50;99.90
5210;DHT22;2624;48.048;11.706;2023-05-10T18:38:57;11.50;99.90
5210;DHT22;2624;48.048;11.706;2023-05-10T18:44:00;11.60;99.90
5210;DHT22;2624;48.048;11.706;2023-05-10T18:49:02;11.20;99.90
5210;DHT22;2624;48.048;11.706;2023-05-10T18:54:05;11.30;99.90
5210;DHT22;2624;48.048;11.706;2023-05-10T18:59:08;11.40;99.90
5210;DHT22;2624;48.048;11.706;2023-05-10T19:04:10;11.40;99.90
5210;DHT22;2624;48.048;11.706;2023-05-10T19:09:12;11.20;99.90
5210;DHT22;2624;48.048;11.706;2023-05-10T19:14:15;11.20;99.90
5210;DHT22;2624;48.048;11.706;2023-05-10T19:19:16;11.00;99.90
5210;DHT22;2624;48.048;11.706;2023-05-10T19:24:18;11.00;99.90
5210;DHT22;2624;48.048;11.706;2023-05-10T19:29:24;11.00;99.90
5210;DHT22;2624;48.048;11.706;2023-05-10T19:34:25;11.00;99.90
5210;DHT22;2624;48.048;11.706;2023-05-10T19:39:27;11.00;99.90
5210;DHT22;2624;48.048;11.706;2023-05-10T19:44:31;10.90;99.90
5210;DHT22;2624;48.048;11.706;2023-05-10T19:49:33;10.90;99.90
5210;DHT22;2624;48.048;11.706;2023-05-10T19:54:35;10.90;99.90
5210;DHT22;2624;48.048;11.706;2023-05-10T19:59:38;11.00;99.90
5210;DHT22;2624;48.048;11.706;2023-05-10T20:04:40;11.00;99.90
5210;DHT22;2624;48.048;11.706;2023-05-10T20:09:42;11.00;99.90
5210;DHT22;2624;48.048;11.706;2023-05-10T20:14:45;10.80;99.90
5210;DHT22;2624;48.048;11.706;2023-05-10T20:19:47;10.80;99.90
5210;DHT22;2624;48.048;11.706;2023-05-10T20:24:48;10.70;99.90
5210;DHT22;2624;48.048;11.706;2023-05-10T20:29:52;10.60;99.90
5210;DHT22;2624;48.048;11.706;2023-05-10T20:34:54;10.70;99.90
5210;DHT22;2624;48.048;11.706;2023-05-10T20:39:56;10.40;99.90
5210;DHT22;2624;48.048;11.706;2023-05-10T20:44:59;10.70;99.90
5210;DHT22;2624;48.048;11.706;2023-05-10T20:50:00;10.50;99.90
5210;DHT22;2624;48.048;11.706;2023-05-10T20:55:03;10.50;99.90
5210;DHT22;2624;48.048;11.706;2023-05-10T21:00:07;10.50;99.90
5210;DHT22;2624;48.048;11.706;2023-05-10T21:05:09;10.30;99.90
5210;DHT22;2624;48.048;11.706;2023-05-10T21:10:11;10.40;99.90
5210;DHT22;2624;48.048;11.706;2023-05-10T21:15:14;10.10;99.90
5210;DHT22;2624;48.048;11.706;2023-05-10T21:20:17;10.10;99.90
5210;DHT22;2624;48.048;11.706;2023-05-10T21:25:18;10.20;99.90
5210;DHT22;2624;48.048;11.706;2023-05-10T21:30:22;10.20;99.90
5210;DHT22;2624;48.048;11.706;2023-05-10T21:35:23;10.30;99.90
5210;DHT22;2624;48.048;11.706;2023-05-10T21:40:25;10.20;99.90
5210;DHT22;2624;48.048;11.706;2023-05-10T21:45:30;10.00;99.90
5210;DHT22;2624;48.048;11.706;2023-05-10T21:50:32;9.80;99.90
5210;DHT22;2624;48.048;11.706;2023-05-10T21:55:35;9.70;99.90
5210;DHT22;2624;48.048;11.706;2023-05-10T22:00:39;10.00;99.90
5210;DHT22;2624;48.048;11.706;2023-05-10T22:05:40;9.70;99.90
5210;DHT22;2624;48.048;11.706;2023-05-10T22:10:42;9.80;99.90
5210;DHT22;2624;48.048;11.706;2023-05-10T22:15:45;9.70;99.90
5210;DHT22;2624;48.048;11.706;2023-05-10T22:20:47;9.70;99.90
5210;DHT22;2624;48.048;11.706;2023-05-10T22:25:49;9.60;99.90
5210;DHT22;2624;48.048;11.706;2023-05-10T22:30:52;9.60;99.90
5210;DHT22;2624;48.048;11.706;2023-05-10T22:35:54;9.70;99.90
5210;DHT22;2624;48.048;11.706;2023-05-10T22:40:55;9.50;99.90
5210;DHT22;2624;48.048;11.706;2023-05-10T22:45:59;9.60;99.90
5210;DHT22;2624;48.048;11.706;2023-05-10T22:51:01;9.60;99.90
5210;DHT22;2624;48.048;11.706;2023-05-10T22:56:02;9.60;99.90
5210;DHT22;2624;48.048;11.706;2023-05-10T23:01:06;9.50;99.90
5210;DHT22;2624;48.048;11.706;2023-05-10T23:06:07;9.40;99.90
5210;DHT22;2624;48.048;11.706;2023-05-10T23:11:09;9.50;99.90
5210;DHT22;2624;48.048;11.706;2023-05-10T23:16:12;9.30;99.90
5210;DHT22;2624;48.048;11.706;2023-05-10T23:21:14;9.40;99.90
5210;DHT22;2624;48.048;11.706;2023-05-10T23:26:16;9.20;99.90
5210;DHT22;2624;48.048;11.706;2023-05-10T23:31:19;9.10;99.90
5210;DHT22;2624;48.048;11.706;2023-05-10T23:36:21;9.10;99.90
5210;DHT22;2624;48.048;11.706;2023-05-10T23:41:23;9.10;99.90
5210;DHT22;2624;48.048;11.706;2023-05-10T23:46:27;9.20;99.90
5210;DHT22;2624;48.048;11.706;2023-05-10T23:51:28;9.00;99.90
5210;DHT22;2624;48.048;11.706;2023-05-10T23:56:30;8.80;99.90
